Time;durP1;ratioP1;P1;durP2;ratioP2;P2;SDS_P1;SDS_P2;PMS_P1;PMS_P2;Temp;Humidity;BMP_temperature;BMP_pressure;BME280_temperature;BME280_humidity;BME280_pressure;Samples;Min_cycle;Max_cycle;Signal;HPM_P1;HPM_P2
2022/03/08 00:05:01;;;;;;;11.07;9.57;;;1.60;24.00;;;;;;10355382;28;20589;-76
2022/03/08 00:10:06;;;;;;;11.20;10.00;;;1.70;23.80;;;;;;10360526;28;20270;-75
2022/03/08 00:15:15;;;;;;;12.30;10.40;;;1.50;23.90;;;;;;10360494;28;20234;-75
2022/03/08 00:20:19;;;;;;;10.63;9.53;;;1.50;24.10;;;;;;10352691;28;20607;-75
2022/03/08 00:25:22;;;;;;;11.30;10.13;;;1.40;23.70;;;;;;10346155;28;20253;-75
2022/03/08 00:30:27;;;;;;;11.73;10.53;;;1.30;23.80;;;;;;10356186;28;20254;-75
2022/03/08 00:35:31;;;;;;;12.00;10.33;;;1.20;24.10;;;;;;10354763;28;20699;-74
2022/03/08 00:40:34;;;;;;;12.97;9.73;;;1.00;24.20;;;;;;10348593;28;20245;-75
2022/03/08 00:45:39;;;;;;;10.67;8.70;;;1.00;24.30;;;;;;10353558;28;20230;-75
2022/03/08 00:50:43;;;;;;;11.57;10.07;;;1.00;24.50;;;;;;10339850;28;20232;-74
2022/03/08 00:55:46;;;;;;;11.53;10.10;;;1.00;24.50;;;;;;10355008;28;20227;-74
2022/03/08 01:00:51;;;;;;;10.80;9.60;;;1.00;24.60;;;;;;10350960;28;20233;-75
2022/03/08 01:05:54;;;;;;;12.90;10.20;;;1.00;24.60;;;;;;10352978;28;20234;-74
2022/03/08 01:10:59;;;;;;;11.17;8.53;;;1.00;24.40;;;;;;10356382;28;20285;-74
2022/03/08 01:16:04;;;;;;;10.97;9.40;;;1.00;24.50;;;;;;10354446;28;20226;-75
2022/03/08 01:21:07;;;;;;;10.80;9.13;;;0.90;24.40;;;;;;10350267;28;20908;-75
2022/03/08 01:26:11;;;;;;;9.43;8.43;;;1.00;24.50;;;;;;10352210;28;20604;-75
2022/03/08 01:31:16;;;;;;;9.53;8.57;;;0.90;24.30;;;;;;10352655;28;20262;-74
2022/03/08 01:36:19;;;;;;;10.13;9.03;;;1.00;24.50;;;;;;10346512;28;20239;-74
2022/03/08 01:41:22;;;;;;;11.57;9.37;;;0.90;24.40;;;;;;10359411;28;20233;-74
2022/03/08 01:46:27;;;;;;;9.67;8.63;;;0.90;24.50;;;;;;10355091;28;20238;-74
2022/03/08 01:51:31;;;;;;;9.50;8.00;;;0.90;24.50;;;;;;10353444;28;20606;-74
2022/03/08 01:56:34;;;;;;;10.30;9.23;;;0.90;24.40;;;;;;10345959;28;20317;-74
2022/03/08 02:01:39;;;;;;;8.93;8.03;;;0.80;24.50;;;;;;10347728;28;20237;-74
2022/03/08 02:06:45;;;;;;;9.53;8.53;;;0.80;25.00;;;;;;10354013;28;20318;-74
2022/03/08 02:11:49;;;;;;;9.43;8.30;;;0.80;24.60;;;;;;10336378;28;20231;-75
2022/03/08 02:16:54;;;;;;;11.87;9.43;;;0.70;24.40;;;;;;10310460;28;20234;-75
2022/03/08 02:21:58;;;;;;;10.20;8.90;;;0.70;24.50;;;;;;10306008;28;20241;-75
2022/03/08 02:27:02;;;;;;;9.67;7.83;;;0.60;24.50;;;;;;10330732;28;20262;-75
2022/03/08 02:32:06;;;;;;;9.67;8.53;;;0.60;24.40;;;;;;10323025;28;20237;-75
2022/03/08 02:37:12;;;;;;;9.13;8.20;;;0.50;24.60;;;;;;10342336;28;20725;-74
2022/03/08 02:42:15;;;;;;;9.40;8.40;;;0.50;24.70;;;;;;10349669;28;20235;-75
2022/03/08 02:47:18;;;;;;;10.37;9.07;;;0.50;24.60;;;;;;10348872;28;20668;-75
2022/03/08 02:52:23;;;;;;;8.60;7.70;;;0.50;24.50;;;;;;10349015;28;20365;-74
2022/03/08 02:57:27;;;;;;;8.80;7.87;;;0.50;24.60;;;;;;10350399;28;20230;-75
2022/03/08 03:02:30;;;;;;;9.90;8.43;;;0.40;24.60;;;;;;10353091;28;20226;-74
2022/03/08 03:07:35;;;;;;;10.37;8.47;;;0.40;24.60;;;;;;10344610;28;20235;-74
2022/03/08 03:12:38;;;;;;;10.80;8.73;;;0.40;24.80;;;;;;10342734;28;20222;-75
2022/03/08 03:17:42;;;;;;;8.77;7.57;;;0.40;24.70;;;;;;10344787;28;20231;-74
2022/03/08 03:22:48;;;;;;;9.73;8.00;;;0.30;24.70;;;;;;10350199;28;20230;-74
2022/03/08 03:27:51;;;;;;;9.97;7.63;;;0.20;24.70;;;;;;10346254;28;20612;-74
2022/03/08 03:32:54;;;;;;;10.43;8.80;;;0.20;24.80;;;;;;10353782;28;20386;-74
2022/03/08 03:37:59;;;;;;;9.53;8.20;;;0.10;24.70;;;;;;10347111;28;20249;-74
2022/03/08 03:43:02;;;;;;;11.57;8.70;;;0.10;24.80;;;;;;10348652;28;20227;-74
2022/03/08 03:48:06;;;;;;;8.87;7.50;;;-0.10;24.70;;;;;;10349145;28;20239;-74
2022/03/08 03:53:10;;;;;;;11.40;7.70;;;-0.10;24.80;;;;;;10352360;28;20843;-74
2022/03/08 03:58:14;;;;;;;9.40;8.40;;;-0.10;25.00;;;;;;10353049;28;20226;-74
2022/03/08 04:03:18;;;;;;;9.07;8.20;;;-0.10;25.00;;;;;;10348668;28;20230;-74
2022/03/08 04:08:23;;;;;;;9.63;7.87;;;-0.10;25.00;;;;;;10354180;28;20851;-74
2022/03/08 04:13:27;;;;;;;8.77;7.67;;;-0.20;25.00;;;;;;10350113;28;20238;-74
2022/03/08 04:18:30;;;;;;;10.13;7.90;;;-0.30;24.80;;;;;;10348635;28;20230;-74
2022/03/08 04:23:35;;;;;;;7.37;6.53;;;-0.30;25.00;;;;;;10348414;28;20233;-74
2022/03/08 04:28:38;;;;;;;8.57;7.37;;;-0.40;25.20;;;;;;10350720;28;20234;-74
2022/03/08 04:33:41;;;;;;;9.90;8.33;;;-0.40;25.10;;;;;;10350454;28;20266;-74
2022/03/08 04:38:45;;;;;;;8.70;7.20;;;-0.40;25.00;;;;;;10353347;28;20245;-74
2022/03/08 04:43:49;;;;;;;7.10;6.40;;;-0.40;25.00;;;;;;10352385;28;20253;-74
2022/03/08 04:48:52;;;;;;;8.73;7.27;;;-0.40;25.00;;;;;;10356135;28;20231;-74
2022/03/08 04:53:56;;;;;;;8.90;7.63;;;-0.30;25.10;;;;;;10352498;28;20230;-74
2022/03/08 04:59:00;;;;;;;9.27;8.27;;;-0.30;25.00;;;;;;10344484;28;20230;-74
2022/03/08 05:04:03;;;;;;;9.53;7.63;;;-0.40;25.00;;;;;;10332681;28;20236;-74
2022/03/08 05:09:07;;;;;;;9.33;7.67;;;-0.40;25.00;;;;;;10348946;28;20774;-74
2022/03/08 05:14:11;;;;;;;9.00;7.03;;;-0.40;25.10;;;;;;10349796;28;20604;-74
2022/03/08 05:19:14;;;;;;;8.50;7.53;;;-0.40;25.00;;;;;;10344545;28;20227;-74
2022/03/08 05:24:19;;;;;;;10.03;8.07;;;-0.40;25.10;;;;;;10348882;28;20218;-74
2022/03/08 05:29:22;;;;;;;10.47;8.47;;;-0.40;25.10;;;;;;10349101;28;20250;-74
2022/03/08 05:34:25;;;;;;;9.43;7.60;;;-0.40;25.10;;;;;;10359009;28;20233;-74
2022/03/08 05:39:30;;;;;;;9.30;7.53;;;-0.40;25.10;;;;;;10345036;28;20230;-74
2022/03/08 05:44:33;;;;;;;8.40;7.17;;;-0.50;25.10;;;;;;10345002;28;20237;-74
2022/03/08 05:49:36;;;;;;;8.63;7.20;;;-0.50;25.20;;;;;;10352277;28;21176;-74
2022/03/08 05:54:41;;;;;;;6.43;5.83;;;-0.50;25.20;;;;;;10356360;28;20237;-71
2022/03/08 05:59:45;;;;;;;7.83;6.53;;;-0.50;25.20;;;;;;10356041;28;20230;-71
2022/03/08 06:04:48;;;;;;;9.73;7.40;;;-0.40;25.30;;;;;;10340986;28;20330;-72
2022/03/08 06:09:52;;;;;;;9.60;7.17;;;-0.40;25.30;;;;;;10340483;28;20246;-73
2022/03/08 06:14:56;;;;;;;8.47;7.33;;;-0.60;26.10;;;;;;10344660;28;20230;-72
2022/03/08 06:19:59;;;;;;;9.00;7.00;;;-0.60;26.10;;;;;;10338323;28;20250;-72
2022/03/08 06:25:04;;;;;;;10.37;8.97;;;-0.60;25.90;;;;;;10304739;28;20814;-72
2022/03/08 06:30:09;;;;;;;9.23;7.70;;;-0.60;25.80;;;;;;10311655;28;20599;-72
2022/03/08 06:35:13;;;;;;;10.17;7.73;;;-0.60;25.70;;;;;;10305407;28;20227;-72
2022/03/08 06:40:18;;;;;;;9.43;7.63;;;-0.60;25.70;;;;;;10311962;28;20222;-72
2022/03/08 06:45:21;;;;;;;10.97;8.30;;;-0.70;25.80;;;;;;10329011;28;20230;-72
2022/03/08 06:50:25;;;;;;;8.43;7.53;;;-0.70;25.70;;;;;;10314553;28;20730;-72
2022/03/08 06:55:29;;;;;;;10.43;8.60;;;-0.80;25.80;;;;;;10310207;28;20254;-73
2022/03/08 07:00:32;;;;;;;16.63;10.57;;;-0.80;25.90;;;;;;10333386;28;20309;-73
2022/03/08 07:05:37;;;;;;;14.20;9.37;;;-0.70;25.90;;;;;;10347868;28;20242;-73
2022/03/08 07:10:42;;;;;;;10.67;7.80;;;-0.70;26.00;;;;;;10350077;28;20666;-74
2022/03/08 07:15:45;;;;;;;11.13;7.20;;;-0.70;26.20;;;;;;10350221;28;20244;-74
2022/03/08 07:20:48;;;;;;;10.60;8.30;;;-0.70;27.10;;;;;;10346790;28;20241;-73
2022/03/08 07:25:58;;;;;;;10.27;8.37;;;-0.50;27.60;;;;;;10344935;28;20370;-73
2022/03/08 07:31:02;;;;;;;10.57;8.77;;;-0.40;27.40;;;;;;10351705;28;20670;-73
2022/03/08 07:36:06;;;;;;;9.53;8.40;;;-0.30;27.30;;;;;;10344835;28;20232;-73
2022/03/08 07:41:11;;;;;;;12.90;8.53;;;-0.20;27.20;;;;;;10349717;28;20305;-74
2022/03/08 07:46:15;;;;;;;13.07;9.10;;;-0.10;27.40;;;;;;10346441;28;20239;-73
2022/03/08 07:51:18;;;;;;;11.60;9.40;;;0.00;27.30;;;;;;10350304;28;20285;-73
2022/03/08 07:56:22;;;;;;;11.93;8.57;;;0.10;27.50;;;;;;10347417;28;20227;-74
2022/03/08 08:01:26;;;;;;;9.57;8.40;;;0.40;27.70;;;;;;10344500;28;20336;-74
2022/03/08 08:06:29;;;;;;;9.73;8.73;;;0.40;27.80;;;;;;10347508;28;20230;-74
2022/03/08 08:11:34;;;;;;;10.80;8.70;;;0.60;27.70;;;;;;10349836;28;20226;-74
2022/03/08 08:16:37;;;;;;;10.43;8.53;;;0.80;27.90;;;;;;10351101;28;20234;-74
2022/03/08 08:21:41;;;;;;;10.70;8.83;;;1.30;28.00;;;;;;10348478;28;21072;-75
2022/03/08 08:26:45;;;;;;;10.60;8.83;;;1.50;28.10;;;;;;10348754;28;20234;-75
2022/03/08 08:31:48;;;;;;;11.27;9.37;;;1.80;28.10;;;;;;10343948;28;20230;-74
2022/03/08 08:36:52;;;;;;;10.17;9.07;;;2.10;28.00;;;;;;10345486;28;20310;-74
2022/03/08 08:41:57;;;;;;;10.20;9.20;;;2.40;27.90;;;;;;10344129;28;20222;-74
2022/03/08 08:47:01;;;;;;;10.03;9.03;;;2.80;28.10;;;;;;10339005;28;20258;-75
2022/03/08 08:52:05;;;;;;;9.90;8.90;;;3.10;28.00;;;;;;10347069;28;20325;-74
2022/03/08 08:57:10;;;;;;;10.57;9.47;;;3.40;28.00;;;;;;10348080;28;20595;-74
2022/03/08 09:02:13;;;;;;;9.60;8.70;;;3.80;28.20;;;;;;10348308;28;20231;-74
2022/03/08 09:07:16;;;;;;;10.43;7.50;;;4.00;28.10;;;;;;10346806;28;20337;-74
2022/03/08 09:12:21;;;;;;;7.73;6.90;;;4.50;27.90;;;;;;10344662;28;20238;-74
2022/03/08 09:17:25;;;;;;;6.67;6.07;;;5.00;27.90;;;;;;10345813;28;20231;-74
2022/03/08 09:22:28;;;;;;;7.10;6.50;;;5.40;27.60;;;;;;10343151;28;20619;-74
2022/03/08 09:27:34;;;;;;;6.87;6.20;;;5.80;27.50;;;;;;10347654;28;20230;-72
2022/03/08 09:32:37;;;;;;;6.40;5.80;;;6.30;27.00;;;;;;10343113;28;20317;-73
2022/03/08 09:37:40;;;;;;;6.80;6.10;;;6.70;26.90;;;;;;10342895;28;20718;-73
2022/03/08 09:42:44;;;;;;;5.23;4.77;;;7.00;26.20;;;;;;10345123;28;20685;-73
2022/03/08 09:47:48;;;;;;;5.20;4.47;;;7.30;25.90;;;;;;10340413;28;20234;-73
2022/03/08 09:52:57;;;;;;;4.73;4.23;;;7.60;25.70;;;;;;10348879;28;20230;-73
2022/03/08 09:58:01;;;;;;;5.00;4.20;;;7.90;24.60;;;;;;10347309;28;20317;-73
2022/03/08 10:03:11;;;;;;;4.27;3.87;;;8.10;24.10;;;;;;10350572;28;20960;-73
2022/03/08 10:08:19;;;;;;;4.63;4.23;;;8.30;23.70;;;;;;10348950;28;20273;-73
2022/03/08 10:13:25;;;;;;;4.57;4.17;;;8.50;23.80;;;;;;10344595;28;20230;-73
2022/03/08 10:18:36;;;;;;;4.70;4.30;;;8.60;23.60;;;;;;10343279;28;20234;-73
2022/03/08 10:23:43;;;;;;;5.40;4.90;;;8.70;22.50;;;;;;10345776;28;20230;-73
2022/03/08 10:28:49;;;;;;;8.00;5.83;;;8.80;22.90;;;;;;10340650;28;20231;-73
2022/03/08 10:33:52;;;;;;;6.20;5.70;;;8.90;22.80;;;;;;10344503;28;20238;-73
2022/03/08 10:39:11;;;;;;;6.93;6.23;;;8.90;23.30;;;;;;10344592;28;20265;-73
2022/03/08 10:44:16;;;;;;;6.20;5.70;;;9.00;22.60;;;;;;10340003;28;20245;-73
2022/03/08 10:49:20;;;;;;;6.73;6.00;;;9.20;23.40;;;;;;10344091;28;20238;-73
2022/03/08 10:54:26;;;;;;;6.63;6.03;;;9.40;23.40;;;;;;10342600;28;20234;-73
2022/03/08 10:59:30;;;;;;;6.00;5.50;;;9.50;22.90;;;;;;10338112;28;20564;-73
2022/03/08 11:04:33;;;;;;;6.47;5.87;;;9.60;23.30;;;;;;10344059;28;20586;-73
2022/03/08 11:09:37;;;;;;;5.43;4.93;;;9.80;22.90;;;;;;10344282;28;20226;-73
2022/03/08 11:14:41;;;;;;;5.50;5.00;;;9.90;22.70;;;;;;10343237;28;20241;-73
2022/03/08 11:19:46;;;;;;;6.10;5.50;;;10.00;20.60;;;;;;10346431;28;20608;-73
2022/03/08 11:24:50;;;;;;;5.83;5.27;;;10.00;20.60;;;;;;10349273;28;20218;-72
2022/03/08 11:29:55;;;;;;;5.73;5.23;;;10.00;21.60;;;;;;10345869;28;20321;-73
2022/03/08 11:35:04;;;;;;;5.83;5.17;;;10.10;21.00;;;;;;10343969;28;20222;-73
2022/03/08 11:40:10;;;;;;;5.70;5.13;;;10.10;20.60;;;;;;10322502;28;20235;-73
2022/03/08 11:45:20;;;;;;;5.37;4.87;;;10.10;21.10;;;;;;10345803;28;20234;-73
2022/03/08 11:50:27;;;;;;;5.10;4.60;;;10.20;20.50;;;;;;10344789;28;20586;-73
2022/03/08 11:55:31;;;;;;;5.77;5.00;;;10.30;21.20;;;;;;10341394;28;20238;-73
2022/03/08 12:00:43;;;;;;;7.93;5.00;;;10.40;20.90;;;;;;10333653;28;20257;-71
2022/03/08 12:05:56;;;;;;;5.33;4.77;;;10.40;21.10;;;;;;10354064;28;20238;-71
2022/03/08 12:11:01;;;;;;;5.30;4.80;;;10.50;20.90;;;;;;10350143;28;20241;-72
2022/03/08 12:16:26;;;;;;;5.63;4.73;;;10.60;21.10;;;;;;10338132;28;20265;-71
2022/03/08 12:21:31;;;;;;;5.43;4.93;;;10.60;19.30;;;;;;10344416;28;20233;-71
2022/03/08 12:26:37;;;;;;;5.27;4.77;;;10.60;20.00;;;;;;10353123;28;20241;-72
2022/03/08 12:32:28;;;;;;;6.23;5.07;;;10.60;20.40;;;;;;10341188;28;20737;-71
2022/03/08 12:37:38;;;;;;;5.13;4.73;;;10.70;19.10;;;;;;10349278;28;20235;-72
2022/03/08 12:42:43;;;;;;;5.33;4.83;;;10.70;20.30;;;;;;10351487;28;20321;-71
2022/03/08 12:47:55;;;;;;;5.53;5.03;;;10.70;20.40;;;;;;10352097;28;20234;-72
2022/03/08 12:53:00;;;;;;;5.60;5.10;;;10.70;20.00;;;;;;10353574;28;20237;-72
2022/03/08 12:58:05;;;;;;;5.17;4.63;;;10.80;20.10;;;;;;10358952;28;20226;-72
2022/03/08 13:03:11;;;;;;;4.93;4.50;;;10.80;20.20;;;;;;10362185;28;20609;-72
2022/03/08 13:08:17;;;;;;;5.60;5.10;;;10.80;19.80;;;;;;10364255;28;20254;-71
2022/03/08 13:13:21;;;;;;;6.73;4.90;;;10.90;19.40;;;;;;10359376;28;20226;-72
2022/03/08 13:18:27;;;;;;;4.80;4.30;;;10.90;19.80;;;;;;10351815;28;20227;-72
2022/03/08 13:23:34;;;;;;;6.37;4.63;;;10.90;19.20;;;;;;10352084;28;20725;-71
2022/03/08 13:28:40;;;;;;;5.33;4.50;;;10.90;19.20;;;;;;10355196;28;20241;-73
2022/03/08 13:33:45;;;;;;;4.53;4.10;;;10.90;19.50;;;;;;10340914;28;20321;-72
2022/03/08 13:38:50;;;;;;;5.57;4.10;;;10.90;19.20;;;;;;10350539;28;20230;-72
2022/03/08 13:43:58;;;;;;;4.50;4.10;;;10.90;19.20;;;;;;10346888;28;20226;-71
2022/03/08 13:49:04;;;;;;;4.90;4.40;;;10.90;19.20;;;;;;10346936;28;20616;-72
2022/03/08 13:54:09;;;;;;;4.30;3.90;;;11.00;19.90;;;;;;10342695;28;20321;-72
2022/03/08 13:59:26;;;;;;;5.07;4.57;;;11.00;19.20;;;;;;10341828;28;20678;-74
2022/03/08 14:04:32;;;;;;;5.77;5.17;;;11.10;18.60;;;;;;10342285;28;20277;-73
2022/03/08 14:09:35;;;;;;;4.87;4.47;;;11.10;18.10;;;;;;10348609;28;20230;-73
2022/03/08 14:14:40;;;;;;;4.80;4.40;;;11.00;19.20;;;;;;10341675;28;20235;-75
2022/03/08 14:19:47;;;;;;;4.53;4.13;;;11.00;19.30;;;;;;10336348;28;20599;-75
2022/03/08 14:25:02;;;;;;;4.70;4.30;;;11.00;18.50;;;;;;10335276;28;20231;-74
2022/03/08 14:30:08;;;;;;;4.80;4.30;;;11.00;18.00;;;;;;10337546;28;20683;-74
2022/03/08 14:35:14;;;;;;;6.90;4.43;;;11.00;18.70;;;;;;10344271;28;20231;-74
2022/03/08 14:40:42;;;;;;;4.50;4.10;;;11.00;18.30;;;;;;10345340;28;20236;-74
2022/03/08 14:45:45;;;;;;;4.53;3.97;;;11.00;17.90;;;;;;10348379;28;20234;-74
2022/03/08 14:51:11;;;;;;;6.53;4.20;;;11.00;18.90;;;;;;10349204;28;20233;-74
2022/03/08 14:56:15;;;;;;;4.73;4.27;;;11.00;18.70;;;;;;10347765;28;20269;-74
2022/03/08 15:01:18;;;;;;;5.47;4.13;;;11.00;18.80;;;;;;10342715;28;20223;-74
2022/03/08 15:06:23;;;;;;;4.97;4.47;;;11.10;18.80;;;;;;10349401;28;20223;-74
2022/03/08 15:11:27;;;;;;;5.10;4.60;;;11.10;18.30;;;;;;10342663;28;20234;-74
2022/03/08 15:16:30;;;;;;;5.10;4.60;;;11.10;18.80;;;;;;10350452;28;20685;-74
2022/03/08 15:21:35;;;;;;;5.03;4.60;;;11.10;18.70;;;;;;10347858;28;20242;-74
2022/03/08 15:26:39;;;;;;;4.83;4.33;;;11.10;18.20;;;;;;10345279;28;20584;-74
2022/03/08 15:31:42;;;;;;;6.27;4.40;;;11.10;18.50;;;;;;10342900;28;20327;-74
2022/03/08 15:36:47;;;;;;;5.40;4.17;;;11.00;18.50;;;;;;10341831;28;20872;-74
2022/03/08 15:41:50;;;;;;;4.43;4.03;;;11.00;18.20;;;;;;10344635;28;20585;-74
2022/03/08 15:46:54;;;;;;;4.47;4.07;;;10.90;18.70;;;;;;10348974;28;20222;-74
2022/03/08 15:51:58;;;;;;;4.53;4.13;;;10.90;18.60;;;;;;10353820;28;20305;-74
2022/03/08 15:57:02;;;;;;;4.70;4.30;;;10.90;18.60;;;;;;10348230;28;20235;-74
2022/03/08 16:02:06;;;;;;;5.80;4.47;;;10.90;18.60;;;;;;10349544;28;20229;-77
2022/03/08 16:07:11;;;;;;;4.53;4.13;;;10.90;18.90;;;;;;10354566;28;20249;-74
2022/03/08 16:12:15;;;;;;;5.03;4.53;;;10.90;18.70;;;;;;10347366;28;20241;-74
2022/03/08 16:17:18;;;;;;;4.80;4.40;;;10.90;18.70;;;;;;10351790;28;20227;-74
2022/03/08 16:22:23;;;;;;;5.77;4.90;;;10.90;18.80;;;;;;10353779;28;20230;-74
2022/03/08 16:27:26;;;;;;;5.93;5.07;;;10.90;18.60;;;;;;10349127;28;20257;-73
2022/03/08 16:32:29;;;;;;;5.57;5.00;;;10.90;18.70;;;;;;10350258;28;20711;-73
2022/03/08 16:37:35;;;;;;;5.83;4.97;;;10.80;19.10;;;;;;10344278;28;20234;-73
2022/03/08 16:42:38;;;;;;;5.73;4.83;;;10.80;18.70;;;;;;10345165;28;20234;-73
2022/03/08 16:47:41;;;;;;;5.03;4.50;;;10.80;19.10;;;;;;10350367;28;20235;-73
2022/03/08 16:52:46;;;;;;;10.00;9.10;;;10.80;19.00;;;;;;10354774;28;20241;-73
2022/03/08 16:57:49;;;;;;;7.60;6.90;;;10.70;18.70;;;;;;10355036;28;20607;-74
2022/03/08 17:02:59;;;;;;;7.40;5.80;;;10.70;19.00;;;;;;10350108;28;20280;-74
2022/03/08 17:08:04;;;;;;;8.03;6.60;;;10.60;19.80;;;;;;10349930;28;20223;-73
2022/03/08 17:13:17;;;;;;;16.20;14.60;;;10.70;19.00;;;;;;10353273;28;20234;-73
2022/03/08 17:18:20;;;;;;;23.67;21.40;;;10.70;19.00;;;;;;10360243;28;20219;-74
2022/03/08 17:23:25;;;;;;;13.23;11.83;;;10.80;19.10;;;;;;10341180;28;20237;-74
2022/03/08 17:28:28;;;;;;;10.60;9.27;;;10.80;19.10;;;;;;10347560;28;20226;-74
2022/03/08 17:33:32;;;;;;;16.53;8.87;;;10.80;19.10;;;;;;10356568;28;20235;-74
2022/03/08 17:38:36;;;;;;;10.03;8.97;;;10.70;19.20;;;;;;10361192;28;20261;-74
2022/03/08 17:43:40;;;;;;;7.80;6.90;;;10.70;19.00;;;;;;10324970;28;20830;-74
2022/03/08 17:48:45;;;;;;;8.27;7.47;;;10.60;19.00;;;;;;10307467;28;20250;-74
2022/03/08 17:53:55;;;;;;;13.37;11.83;;;10.50;18.90;;;;;;10330626;28;20228;-74
2022/03/08 17:59:05;;;;;;;13.70;10.67;;;10.40;18.80;;;;;;10344254;28;20241;-74
2022/03/08 18:04:08;;;;;;;12.93;9.77;;;10.30;18.70;;;;;;10310976;28;20241;-74
2022/03/08 18:09:13;;;;;;;15.07;9.77;;;10.20;18.70;;;;;;10304628;28;20330;-74
2022/03/08 18:14:20;;;;;;;16.83;11.67;;;10.00;18.60;;;;;;10311223;28;20234;-74
2022/03/08 18:19:23;;;;;;;16.17;10.43;;;9.90;19.30;;;;;;10307719;28;20257;-75
2022/03/08 18:24:28;;;;;;;12.93;9.57;;;9.70;19.40;;;;;;10345596;28;20234;-74
2022/03/08 18:29:31;;;;;;;11.40;9.07;;;9.50;19.40;;;;;;10357331;28;20246;-74
2022/03/08 18:34:35;;;;;;;13.57;10.87;;;9.40;19.60;;;;;;10331228;28;20630;-74
2022/03/08 18:39:39;;;;;;;12.77;9.60;;;9.20;19.60;;;;;;10336975;28;21053;-74
2022/03/08 18:44:43;;;;;;;15.93;12.20;;;9.10;19.60;;;;;;10303254;28;20226;-73
2022/03/08 18:49:46;;;;;;;13.03;10.50;;;9.00;19.70;;;;;;10313361;28;20242;-74
2022/03/08 18:54:51;;;;;;;12.50;8.50;;;8.80;19.80;;;;;;10317353;28;20234;-73
2022/03/08 18:59:55;;;;;;;9.00;7.30;;;8.70;19.70;;;;;;10351525;28;20235;-74
2022/03/08 19:04:58;;;;;;;7.33;6.23;;;8.50;19.80;;;;;;10302143;28;20759;-73
2022/03/08 19:10:03;;;;;;;8.40;7.43;;;8.30;19.80;;;;;;10308814;28;20245;-73
2022/03/08 19:15:07;;;;;;;9.60;7.87;;;8.10;19.70;;;;;;10313303;28;20253;-73
2022/03/08 19:20:11;;;;;;;13.00;10.23;;;8.00;20.00;;;;;;10337193;28;20234;-74
2022/03/08 19:25:16;;;;;;;16.43;11.77;;;7.90;20.10;;;;;;10356811;28;20226;-72
2022/03/08 19:30:19;;;;;;;13.70;11.63;;;7.70;20.10;;;;;;10348787;28;20229;-73
2022/03/08 19:35:22;;;;;;;10.60;9.47;;;7.60;20.10;;;;;;10351829;28;20229;-73
2022/03/08 19:40:27;;;;;;;10.83;8.33;;;7.50;20.20;;;;;;10338180;28;20306;-73
2022/03/08 19:45:31;;;;;;;10.30;9.03;;;7.30;20.30;;;;;;10323906;28;21003;-73
2022/03/08 19:50:35;;;;;;;18.37;16.30;;;7.20;20.30;;;;;;10302131;28;20734;-73
2022/03/08 19:55:39;;;;;;;20.50;17.53;;;7.10;20.30;;;;;;10299561;28;20238;-73
2022/03/08 20:00:43;;;;;;;27.47;23.40;;;6.90;20.40;;;;;;10325206;28;20601;-73
2022/03/08 20:05:47;;;;;;;26.50;20.13;;;6.70;20.40;;;;;;10332516;28;20231;-73
2022/03/08 20:10:55;;;;;;;20.00;17.43;;;6.50;20.40;;;;;;10325087;28;20322;-72
2022/03/08 20:15:58;;;;;;;13.33;11.93;;;6.40;20.70;;;;;;10321614;28;20242;-73
2022/03/08 20:21:02;;;;;;;14.87;13.33;;;6.30;20.80;;;;;;10341874;28;20227;-74
2022/03/08 20:26:07;;;;;;;14.20;11.53;;;6.20;20.90;;;;;;10354340;28;20222;-75
2022/03/08 20:31:14;;;;;;;14.77;13.17;;;6.20;21.00;;;;;;10358030;28;20231;-74
2022/03/08 20:36:17;;;;;;;11.57;10.37;;;6.20;21.00;;;;;;10360599;28;20243;-74
2022/03/08 20:41:22;;;;;;;13.17;11.70;;;6.20;21.00;;;;;;10355743;28;20222;-73
2022/03/08 20:46:25;;;;;;;13.77;11.97;;;6.10;21.10;;;;;;10354664;28;20333;-74
2022/03/08 20:51:28;;;;;;;14.07;11.40;;;6.10;21.00;;;;;;10354153;28;20983;-73
2022/03/08 20:56:33;;;;;;;14.60;12.53;;;6.00;21.00;;;;;;10357022;28;20701;-74
2022/03/08 21:01:37;;;;;;;14.17;12.20;;;6.00;21.10;;;;;;10356640;28;20222;-74
2022/03/08 21:06:40;;;;;;;12.37;11.07;;;5.90;20.90;;;;;;10355081;28;20234;-74
2022/03/08 21:11:45;;;;;;;10.40;9.33;;;5.70;21.00;;;;;;10351870;28;20227;-75
2022/03/08 21:16:48;;;;;;;11.03;9.93;;;5.50;21.20;;;;;;10349725;28;20234;-74
2022/03/08 21:21:51;;;;;;;14.37;12.10;;;5.50;21.30;;;;;;10341591;28;20249;-75
2022/03/08 21:26:56;;;;;;;13.03;11.63;;;5.40;21.30;;;;;;10346619;28;20710;-75
2022/03/08 21:32:00;;;;;;;11.43;9.93;;;5.40;21.40;;;;;;10346069;28;20250;-75
2022/03/08 21:37:04;;;;;;;14.07;10.27;;;5.30;21.30;;;;;;10348808;28;20233;-75
2022/03/08 21:42:08;;;;;;;9.07;8.17;;;5.30;21.30;;;;;;10321718;28;20231;-75
2022/03/08 21:47:12;;;;;;;12.97;10.93;;;5.20;21.40;;;;;;10308628;28;20274;-75
2022/03/08 21:52:15;;;;;;;12.43;10.20;;;5.10;21.30;;;;;;10323400;28;20247;-74
2022/03/08 21:57:28;;;;;;;11.77;10.60;;;4.90;21.40;;;;;;10341178;28;20234;-73
2022/03/08 22:02:31;;;;;;;13.67;12.10;;;4.80;21.50;;;;;;10340031;28;20237;-73
2022/03/08 22:07:35;;;;;;;13.43;12.00;;;4.70;21.50;;;;;;10341881;28;20241;-74
2022/03/08 22:12:40;;;;;;;12.03;9.80;;;4.70;21.60;;;;;;10340313;28;20247;-73
2022/03/08 22:17:43;;;;;;;11.90;9.90;;;4.70;21.80;;;;;;10345246;28;20313;-73
2022/03/08 22:22:47;;;;;;;13.03;10.97;;;4.60;21.80;;;;;;10342208;28;20718;-73
2022/03/08 22:27:51;;;;;;;11.13;9.87;;;4.50;21.70;;;;;;10343952;28;20238;-73
2022/03/08 22:32:55;;;;;;;15.57;10.70;;;4.40;21.90;;;;;;10347803;28;20233;-73
2022/03/08 22:37:58;;;;;;;13.97;8.93;;;4.30;22.10;;;;;;10350968;28;20234;-73
2022/03/08 22:43:03;;;;;;;10.03;8.90;;;4.30;22.20;;;;;;10353513;28;20226;-74
2022/03/08 22:48:07;;;;;;;11.93;10.30;;;4.30;22.20;;;;;;10344361;28;20240;-74
2022/03/08 22:53:10;;;;;;;11.60;10.40;;;4.30;22.20;;;;;;10345741;28;20233;-74
2022/03/08 22:58:16;;;;;;;15.87;11.67;;;4.30;22.20;;;;;;10343838;28;20717;-74
2022/03/08 23:03:19;;;;;;;12.03;10.73;;;4.30;22.20;;;;;;10342287;28;20239;-74
2022/03/08 23:08:23;;;;;;;11.77;10.03;;;4.20;22.10;;;;;;10341746;28;20245;-74
2022/03/08 23:13:27;;;;;;;12.60;10.50;;;4.10;22.20;;;;;;10343178;28;20227;-74
2022/03/08 23:18:31;;;;;;;10.77;9.53;;;4.10;22.30;;;;;;10344200;28;20325;-73
2022/03/08 23:23:34;;;;;;;9.80;8.80;;;4.10;22.20;;;;;;10347024;28;20253;-73
2022/03/08 23:28:39;;;;;;;10.23;9.13;;;4.00;22.30;;;;;;10343565;28;20245;-73
2022/03/08 23:33:44;;;;;;;12.63;9.17;;;4.00;22.50;;;;;;10343553;28;20297;-74
2022/03/08 23:38:50;;;;;;;10.50;9.13;;;3.90;22.50;;;;;;10346519;28;20288;-73
2022/03/08 23:43:54;;;;;;;9.70;8.80;;;3.90;22.50;;;;;;10345984;28;20218;-73
2022/03/08 23:48:58;;;;;;;9.63;8.60;;;3.80;22.50;;;;;;10347840;28;20238;-75
2022/03/08 23:54:01;;;;;;;10.20;7.80;;;3.80;22.50;;;;;;10345134;28;20218;-73
2022/03/08 23:59:08;;;;;;;10.40;9.13;;;3.70;22.50;;;;;;10343954;28;20222;-74
